Time;durP1;ratioP1;P1;durP2;ratioP2;P2;SDS_P1;SDS_P2;PMS_P1;PMS_P2;Temp;Humidity;BMP_temperature;BMP_pressure;BME280_temperature;BME280_humidity;BME280_pressure;Samples;Min_cycle;Max_cycle;Signal;HPM_P1;HPM_P2
2021/09/19 00:00:06;;;;;;;;;;;;;;;11.26;46.68;100363.50;3539819;27;19931;-69
2021/09/19 00:01:46;;;;;;;;;;;;;;;11.26;46.60;100354.66;3533193;27;20417;-70
2021/09/19 00:03:27;;;;;;;;;;;;;;;11.24;46.51;100360.16;3540616;27;20026;-69
2021/09/19 00:05:08;;;;;;;;;;;;;;;11.22;46.58;100359.50;3540575;27;19972;-70
2021/09/19 00:06:48;;;;;;;;;;;;;;;11.22;46.65;100362.19;3536368;27;20821;-70
2021/09/19 00:08:29;;;;;;;;;;;;;;;11.27;46.70;100367.81;3531739;27;19930;-70
2021/09/19 00:10:10;;;;;;;;;;;;;;;11.35;46.89;100358.88;3540215;27;19923;-69
2021/09/19 00:11:51;;;;;;;;;;;;;;;11.42;46.62;100356.31;3536836;27;20351;-69
2021/09/19 00:13:31;;;;;;;;;;;;;;;11.46;46.38;100368.28;3540274;27;19923;-69
2021/09/19 00:15:14;;;;;;;;;;;;;;;11.45;46.41;100371.97;3530537;27;19930;-69
2021/09/19 00:16:55;;;;;;;;;;;;;;;11.41;46.39;100368.00;3515360;28;19923;-70
2021/09/19 00:18:36;;;;;;;;;;;;;;;11.40;46.41;100363.69;3535602;27;19924;-70
2021/09/19 00:20:18;;;;;;;;;;;;;;;11.42;46.36;100362.50;3540166;27;19923;-69
2021/09/19 00:21:58;;;;;;;;;;;;;;;11.42;46.29;100359.00;3536223;27;20093;-71
2021/09/19 00:23:39;;;;;;;;;;;;;;;11.39;46.25;100357.53;3540116;27;20297;-70
2021/09/19 00:25:19;;;;;;;;;;;;;;;11.35;46.27;100361.56;3517519;28;20026;-71
2021/09/19 00:27:00;;;;;;;;;;;;;;;11.32;46.35;100372.59;3532841;27;19925;-69
2021/09/19 00:28:41;;;;;;;;;;;;;;;11.32;46.50;100370.75;3539832;27;19924;-70
2021/09/19 00:30:22;;;;;;;;;;;;;;;11.34;46.44;100371.41;3540276;27;19919;-69
2021/09/19 00:32:03;;;;;;;;;;;;;;;11.30;46.49;100370.09;3513998;28;19928;-70
2021/09/19 00:33:43;;;;;;;;;;;;;;;11.29;46.56;100373.78;3522828;28;19930;-69
2021/09/19 00:35:23;;;;;;;;;;;;;;;11.24;46.58;100370.03;3531822;27;20302;-70
2021/09/19 00:37:04;;;;;;;;;;;;;;;11.21;46.63;100365.88;3539945;27;19992;-70
2021/09/19 00:38:45;;;;;;;;;;;;;;;11.21;46.58;100376.56;3539887;27;19963;-70
2021/09/19 00:40:25;;;;;;;;;;;;;;;11.27;46.67;100370.47;3539112;27;19931;-70
2021/09/19 00:42:06;;;;;;;;;;;;;;;11.31;46.50;100378.97;3532044;27;20301;-70
2021/09/19 00:43:47;;;;;;;;;;;;;;;11.30;46.31;100369.28;3529170;27;20046;-69
2021/09/19 00:45:28;;;;;;;;;;;;;;;11.34;46.37;100375.91;3532308;27;20068;-69
2021/09/19 00:47:09;;;;;;;;;;;;;;;11.38;46.38;100373.72;3525312;27;19974;-69
2021/09/19 00:48:49;;;;;;;;;;;;;;;11.32;46.32;100380.59;3526750;27;19959;-69
2021/09/19 00:50:31;;;;;;;;;;;;;;;11.27;46.43;100380.31;3540092;27;19959;-69
2021/09/19 00:52:11;;;;;;;;;;;;;;;11.30;46.49;100382.63;3535718;27;20373;-69
2021/09/19 00:53:52;;;;;;;;;;;;;;;11.42;46.53;100378.50;3539632;27;19939;-69
2021/09/19 00:55:32;;;;;;;;;;;;;;;11.47;46.31;100375.28;3523425;28;19969;-70
2021/09/19 00:57:13;;;;;;;;;;;;;;;11.45;46.30;100378.13;3525137;28;20320;-70
2021/09/19 00:58:54;;;;;;;;;;;;;;;11.39;46.28;100367.38;3518818;28;19924;-69
2021/09/19 01:00:35;;;;;;;;;;;;;;;11.32;46.28;100372.59;3535149;27;20424;-69
2021/09/19 01:02:16;;;;;;;;;;;;;;;11.26;46.29;100374.16;3532705;27;19923;-71
2021/09/19 01:03:57;;;;;;;;;;;;;;;11.24;46.43;100381.50;3525505;28;20480;-69
2021/09/19 01:05:37;;;;;;;;;;;;;;;11.25;46.40;100372.50;3528964;27;20021;-69
2021/09/19 01:07:18;;;;;;;;;;;;;;;11.31;46.48;100381.63;3529298;27;19924;-69
2021/09/19 01:08:59;;;;;;;;;;;;;;;11.37;46.25;100369.38;3525354;28;20018;-69
2021/09/19 01:10:39;;;;;;;;;;;;;;;11.31;46.17;100369.13;3525239;28;20019;-70
2021/09/19 01:12:23;;;;;;;;;;;;;;;11.25;46.20;100380.50;3530329;27;19955;-69
2021/09/19 01:14:04;;;;;;;;;;;;;;;11.20;46.24;100369.53;3521697;28;19974;-70
2021/09/19 01:15:45;;;;;;;;;;;;;;;11.18;46.29;100376.91;3534204;27;19954;-70
2021/09/19 01:17:26;;;;;;;;;;;;;;;11.16;46.33;100372.78;3523708;28;19979;-71
2021/09/19 01:19:09;;;;;;;;;;;;;;;11.12;46.31;100372.28;3535193;27;19923;-69
2021/09/19 01:20:50;;;;;;;;;;;;;;;11.11;46.25;100367.97;3523319;28;20003;-69
2021/09/19 01:22:31;;;;;;;;;;;;;;;11.12;46.26;100370.44;3523811;28;19924;-69
2021/09/19 01:24:12;;;;;;;;;;;;;;;11.09;46.34;100376.16;3533528;27;19924;-69
2021/09/19 01:25:52;;;;;;;;;;;;;;;11.05;46.24;100371.38;3537190;27;19942;-69
2021/09/19 01:27:34;;;;;;;;;;;;;;;11.05;46.21;100366.88;3537771;27;19938;-69
2021/09/19 01:29:14;;;;;;;;;;;;;;;11.06;46.28;100352.50;3539120;27;20419;-68
2021/09/19 01:30:55;;;;;;;;;;;;;;;11.11;46.51;100375.97;3538531;27;19923;-68
2021/09/19 01:32:38;;;;;;;;;;;;;;;11.14;46.29;100365.75;3538935;27;19930;-69
2021/09/19 01:34:18;;;;;;;;;;;;;;;11.16;46.23;100375.44;3533166;27;20023;-69
2021/09/19 01:35:59;;;;;;;;;;;;;;;11.16;46.21;100359.44;3539183;27;19990;-69
2021/09/19 01:37:39;;;;;;;;;;;;;;;11.09;46.09;100359.31;3537724;27;19927;-70
2021/09/19 01:39:20;;;;;;;;;;;;;;;11.05;46.05;100360.72;3539011;27;19923;-70
2021/09/19 01:41:00;;;;;;;;;;;;;;;11.00;46.27;100368.41;3537668;27;20035;-70
2021/09/19 01:42:41;;;;;;;;;;;;;;;11.00;46.17;100353.25;3536564;27;20018;-70
2021/09/19 01:44:22;;;;;;;;;;;;;;;10.97;46.18;100347.41;3532586;27;19924;-70
2021/09/19 01:46:03;;;;;;;;;;;;;;;10.99;46.35;100353.41;3522051;28;19924;-69
2021/09/19 01:47:44;;;;;;;;;;;;;;;11.10;46.15;100358.28;3532501;27;19964;-69
2021/09/19 01:49:24;;;;;;;;;;;;;;;11.17;46.10;100350.41;3532264;27;19971;-70
2021/09/19 01:51:07;;;;;;;;;;;;;;;11.23;45.91;100339.84;3509245;28;20410;-70
2021/09/19 01:52:48;;;;;;;;;;;;;;;11.28;45.91;100353.47;3507530;28;19924;-70
2021/09/19 01:54:28;;;;;;;;;;;;;;;11.26;45.85;100335.97;3523964;27;19924;-69
2021/09/19 01:56:09;;;;;;;;;;;;;;;11.24;45.79;100335.34;3538621;27;19927;-70
2021/09/19 01:57:50;;;;;;;;;;;;;;;11.20;45.87;100334.84;3522123;28;20010;-72
2021/09/19 01:59:31;;;;;;;;;;;;;;;11.14;45.69;100331.06;3533390;27;19927;-69
2021/09/19 02:01:11;;;;;;;;;;;;;;;11.06;45.89;100335.69;3536782;27;19930;-69
2021/09/19 02:02:52;;;;;;;;;;;;;;;10.98;45.84;100333.09;3538918;27;19920;-69
2021/09/19 02:04:37;;;;;;;;;;;;;;;10.93;45.88;100330.97;3537826;27;19927;-69
2021/09/19 02:06:17;;;;;;;;;;;;;;;10.85;46.13;100328.38;3523865;28;19924;-69
2021/09/19 02:07:58;;;;;;;;;;;;;;;10.84;46.15;100332.88;3533507;27;20339;-69
2021/09/19 02:09:38;;;;;;;;;;;;;;;10.82;46.05;100321.56;3523704;28;19923;-69
2021/09/19 02:11:20;;;;;;;;;;;;;;;10.82;46.14;100321.56;3535533;27;19927;-68
2021/09/19 02:13:00;;;;;;;;;;;;;;;10.80;46.06;100318.25;3528729;27;20275;-69
2021/09/19 02:14:41;;;;;;;;;;;;;;;10.79;45.98;100308.59;3536241;27;19930;-68
2021/09/19 02:16:22;;;;;;;;;;;;;;;10.80;46.13;100312.91;3535623;27;19923;-68
2021/09/19 02:18:02;;;;;;;;;;;;;;;10.81;46.09;100317.22;3538087;27;20403;-69
2021/09/19 02:19:43;;;;;;;;;;;;;;;10.81;45.93;100306.56;3537301;27;19930;-69
2021/09/19 02:21:24;;;;;;;;;;;;;;;10.80;45.99;100310.25;3538797;27;19923;-69
2021/09/19 02:23:04;;;;;;;;;;;;;;;10.82;46.12;100318.91;3536795;27;19924;-69
2021/09/19 02:24:45;;;;;;;;;;;;;;;10.83;46.14;100314.38;3538268;27;20006;-70
2021/09/19 02:26:26;;;;;;;;;;;;;;;10.85;46.17;100310.53;3525510;27;20313;-70
2021/09/19 02:28:06;;;;;;;;;;;;;;;10.88;46.22;100317.34;3524452;28;19923;-71
2021/09/19 02:29:48;;;;;;;;;;;;;;;10.87;46.04;100305.84;3524341;28;19930;-70
2021/09/19 02:31:29;;;;;;;;;;;;;;;10.87;46.13;100310.38;3534654;27;20271;-70
2021/09/19 02:33:09;;;;;;;;;;;;;;;10.85;46.10;100313.19;3537650;27;19930;-70
2021/09/19 02:34:50;;;;;;;;;;;;;;;10.86;46.18;100314.84;3537848;28;20327;-70
2021/09/19 02:36:30;;;;;;;;;;;;;;;10.88;46.20;100302.16;3523465;28;20435;-70
2021/09/19 02:38:11;;;;;;;;;;;;;;;10.93;46.07;100298.13;3534734;28;19919;-70
2021/09/19 02:39:52;;;;;;;;;;;;;;;10.94;46.00;100311.28;3538574;28;20006;-70
2021/09/19 02:41:32;;;;;;;;;;;;;;;10.91;46.10;100308.97;3537822;28;19971;-69
2021/09/19 02:43:13;;;;;;;;;;;;;;;10.88;46.07;100302.16;3532601;28;19930;-69
2021/09/19 02:44:53;;;;;;;;;;;;;;;10.98;46.28;100304.56;3537233;28;19923;-70
2021/09/19 02:46:34;;;;;;;;;;;;;;;11.04;46.06;100316.34;3528313;28;20283;-70
2021/09/19 02:48:14;;;;;;;;;;;;;;;11.03;45.96;100306.72;3534625;28;19928;-70
2021/09/19 02:49:55;;;;;;;;;;;;;;;11.00;45.99;100307.06;3535822;28;20033;-70
2021/09/19 02:51:35;;;;;;;;;;;;;;;10.97;46.03;100296.75;3538626;28;19961;-70
2021/09/19 02:53:16;;;;;;;;;;;;;;;10.95;46.22;100312.94;3537083;28;19930;-70
2021/09/19 02:54:56;;;;;;;;;;;;;;;10.93;46.21;100308.81;3536636;27;20034;-71
2021/09/19 02:56:37;;;;;;;;;;;;;;;10.98;46.22;100311.75;3527394;27;20374;-69
2021/09/19 02:58:17;;;;;;;;;;;;;;;11.02;46.08;100313.88;3538931;27;20405;-70
2021/09/19 02:59:58;;;;;;;;;;;;;;;11.04;46.15;100316.34;3527731;27;19922;-69
2021/09/19 03:01:38;;;;;;;;;;;;;;;11.02;46.03;100308.56;3537809;27;19923;-69
2021/09/19 03:03:19;;;;;;;;;;;;;;;11.01;46.07;100311.38;3541232;27;19916;-70
2021/09/19 03:04:59;;;;;;;;;;;;;;;11.01;46.18;100314.06;3540695;27;19929;-70
2021/09/19 03:06:40;;;;;;;;;;;;;;;10.99;46.09;100310.72;3535557;27;19949;-70
2021/09/19 03:08:20;;;;;;;;;;;;;;;10.95;46.01;100312.13;3525925;28;19978;-70
2021/09/19 03:10:01;;;;;;;;;;;;;;;10.94;46.19;100318.44;3529334;27;19928;-69
2021/09/19 03:11:42;;;;;;;;;;;;;;;10.93;46.13;100312.28;3526705;28;19916;-70
2021/09/19 03:13:22;;;;;;;;;;;;;;;10.84;46.32;100311.56;3527125;28;19963;-70
2021/09/19 03:15:03;;;;;;;;;;;;;;;10.78;46.27;100311.44;3526649;27;20015;-70
2021/09/19 03:16:43;;;;;;;;;;;;;;;10.73;46.55;100303.97;3532330;27;20025;-69
2021/09/19 03:18:24;;;;;;;;;;;;;;;10.71;46.61;100313.97;3526069;28;19923;-70
2021/09/19 03:20:06;;;;;;;;;;;;;;;10.73;46.52;100314.63;3529201;27;19931;-69
2021/09/19 03:21:46;;;;;;;;;;;;;;;10.74;46.54;100315.47;3525892;28;20433;-70
2021/09/19 03:23:27;;;;;;;;;;;;;;;10.71;46.65;100311.31;3526696;28;19924;-70
2021/09/19 03:25:07;;;;;;;;;;;;;;;10.68;46.71;100309.84;3533556;27;19970;-70
2021/09/19 03:26:48;;;;;;;;;;;;;;;10.69;46.79;100318.69;3535259;27;19923;-70
2021/09/19 03:28:28;;;;;;;;;;;;;;;10.67;46.62;100310.84;3540825;27;20003;-70
2021/09/19 03:30:10;;;;;;;;;;;;;;;10.66;46.75;100316.34;3538561;27;19938;-69
2021/09/19 03:31:50;;;;;;;;;;;;;;;10.71;46.84;100316.66;3540972;27;19924;-69
2021/09/19 03:33:31;;;;;;;;;;;;;;;10.74;46.85;100310.97;3540945;27;19935;-70
2021/09/19 03:35:12;;;;;;;;;;;;;;;10.73;46.94;100308.47;3538777;27;19930;-70
2021/09/19 03:36:52;;;;;;;;;;;;;;;10.73;46.79;100308.47;3537258;27;19931;-70
2021/09/19 03:38:33;;;;;;;;;;;;;;;10.71;46.73;100313.97;3540810;27;20320;-70
2021/09/19 03:40:14;;;;;;;;;;;;;;;10.72;46.81;100310.31;3522144;28;19967;-70
2021/09/19 03:41:54;;;;;;;;;;;;;;;10.74;47.04;100304.78;3523765;28;19930;-69
2021/09/19 03:43:35;;;;;;;;;;;;;;;10.76;46.86;100308.13;3526798;28;20037;-70
2021/09/19 03:45:15;;;;;;;;;;;;;;;10.76;46.94;100308.94;3528954;27;20481;-69
2021/09/19 03:46:56;;;;;;;;;;;;;;;10.72;46.90;100313.00;3533284;27;20430;-70
2021/09/19 03:48:36;;;;;;;;;;;;;;;10.73;46.99;100309.31;3526425;28;19923;-70
2021/09/19 03:50:17;;;;;;;;;;;;;;;10.74;47.12;100313.66;3535093;27;19928;-71
2021/09/19 03:51:58;;;;;;;;;;;;;;;10.74;46.96;100310.97;3527230;27;20022;-70
2021/09/19 03:53:38;;;;;;;;;;;;;;;10.77;46.98;100312.47;3524183;28;20334;-71
2021/09/19 03:55:19;;;;;;;;;;;;;;;10.73;46.93;100311.97;3522472;28;20334;-70
2021/09/19 03:57:01;;;;;;;;;;;;;;;10.72;47.16;100315.66;3533928;27;19929;-72
2021/09/19 03:58:41;;;;;;;;;;;;;;;10.71;47.19;100313.97;3537433;27;19923;-70
2021/09/19 04:00:22;;;;;;;;;;;;;;;10.70;47.09;100309.66;3537318;27;19976;-69
2021/09/19 04:02:02;;;;;;;;;;;;;;;10.70;47.05;100309.66;3538475;27;20382;-69
2021/09/19 04:03:43;;;;;;;;;;;;;;;10.71;47.20;100316.66;3540333;27;19923;-69
2021/09/19 04:05:23;;;;;;;;;;;;;;;10.70;47.24;100309.66;3540545;27;20447;-69
2021/09/19 04:07:04;;;;;;;;;;;;;;;10.71;47.25;100311.31;3518036;28;19939;-69
2021/09/19 04:08:44;;;;;;;;;;;;;;;10.71;47.15;100321.97;3523346;27;19951;-70
2021/09/19 04:10:25;;;;;;;;;;;;;;;10.70;47.22;100315.00;3511143;28;19973;-71
2021/09/19 04:12:05;;;;;;;;;;;;;;;10.71;47.25;100316.66;3525069;27;19972;-71
2021/09/19 04:13:46;;;;;;;;;;;;;;;10.70;47.21;100315.81;3526194;28;19975;-69
2021/09/19 04:15:26;;;;;;;;;;;;;;;10.71;47.33;100313.97;3525836;27;19923;-70
2021/09/19 04:17:07;;;;;;;;;;;;;;;10.73;47.50;100316.47;3535617;27;20423;-70
2021/09/19 04:18:47;;;;;;;;;;;;;;;10.75;47.52;100317.97;3534157;27;19927;-70
2021/09/19 04:20:28;;;;;;;;;;;;;;;10.75;47.38;100323.28;3540228;27;20022;-71
2021/09/19 04:22:09;;;;;;;;;;;;;;;10.75;47.34;100322.47;3530907;27;20030;-69
2021/09/19 04:23:49;;;;;;;;;;;;;;;10.76;47.38;100314.28;3526209;28;19936;-70
2021/09/19 04:25:30;;;;;;;;;;;;;;;10.78;47.35;100320.25;3526137;28;19924;-70
2021/09/19 04:27:11;;;;;;;;;;;;;;;10.80;47.45;100323.56;3533223;27;19927;-70
2021/09/19 04:28:53;;;;;;;;;;;;;;;10.79;47.42;100324.59;3527854;27;20322;-70
2021/09/19 04:30:33;;;;;;;;;;;;;;;10.81;47.63;100327.88;3526040;28;19954;-71
2021/09/19 04:32:14;;;;;;;;;;;;;;;10.84;47.58;100330.22;3528683;27;19977;-71
2021/09/19 04:33:54;;;;;;;;;;;;;;;10.85;47.63;100323.88;3526006;28;19924;-70
2021/09/19 04:35:35;;;;;;;;;;;;;;;10.85;47.58;100313.19;3531276;27;19981;-71
2021/09/19 04:37:16;;;;;;;;;;;;;;;10.83;47.47;100317.88;3539981;27;20310;-72
2021/09/19 04:38:57;;;;;;;;;;;;;;;10.85;47.50;100315.03;3534347;27;20313;-71
2021/09/19 04:40:37;;;;;;;;;;;;;;;10.83;47.61;100319.72;3540003;27;19924;-70
2021/09/19 04:42:18;;;;;;;;;;;;;;;10.82;47.60;100313.56;3534797;27;19926;-70
2021/09/19 04:43:58;;;;;;;;;;;;;;;10.83;47.57;100314.38;3531756;27;19927;-70
2021/09/19 04:45:39;;;;;;;;;;;;;;;10.84;47.56;100316.88;3539833;27;19990;-71
2021/09/19 04:47:20;;;;;;;;;;;;;;;10.84;47.70;100316.03;3532306;27;20106;-70
2021/09/19 04:49:00;;;;;;;;;;;;;;;10.83;47.79;100314.38;3520411;28;19931;-71
2021/09/19 04:50:42;;;;;;;;;;;;;;;10.81;47.79;100325.22;3536815;27;19924;-70
2021/09/19 04:52:22;;;;;;;;;;;;;;;10.84;47.78;100316.88;3524823;28;19926;-70
2021/09/19 04:54:03;;;;;;;;;;;;;;;10.85;47.88;100321.19;3535155;27;20033;-70
2021/09/19 04:55:43;;;;;;;;;;;;;;;10.84;47.79;100321.38;3537364;27;19997;-71
2021/09/19 04:57:24;;;;;;;;;;;;;;;10.84;47.86;100321.38;3530616;27;19923;-70
2021/09/19 04:59:04;;;;;;;;;;;;;;;10.84;47.78;100322.22;3519709;28;20019;-71
2021/09/19 05:00:45;;;;;;;;;;;;;;;10.82;47.75;100323.41;3531540;27;20014;-70
2021/09/19 05:02:26;;;;;;;;;;;;;;;10.82;47.95;100318.91;3528872;27;19946;-71
2021/09/19 05:04:06;;;;;;;;;;;;;;;10.83;47.80;100317.06;3539674;27;20400;-71
2021/09/19 05:05:47;;;;;;;;;;;;;;;10.84;47.71;100324.88;3524499;28;20447;-70
2021/09/19 05:07:27;;;;;;;;;;;;;;;10.85;47.76;100315.88;3526175;27;19931;-70
2021/09/19 05:09:08;;;;;;;;;;;;;;;10.84;47.85;100319.56;3526086;27;20045;-69
2021/09/19 05:10:49;;;;;;;;;;;;;;;10.85;47.65;100315.88;3521115;28;20022;-69
2021/09/19 05:12:29;;;;;;;;;;;;;;;10.89;47.78;100321.66;3534863;27;20017;-70
2021/09/19 05:14:10;;;;;;;;;;;;;;;10.93;47.65;100327.47;3539166;27;19923;-70
2021/09/19 05:15:50;;;;;;;;;;;;;;;10.96;47.78;100319.09;3539594;27;19923;-70
2021/09/19 05:17:30;;;;;;;;;;;;;;;10.99;47.74;100324.06;3531895;27;19924;-70
2021/09/19 05:19:11;;;;;;;;;;;;;;;11.00;47.59;100315.06;3533803;27;19930;-69
2021/09/19 05:20:51;;;;;;;;;;;;;;;11.01;47.69;100327.38;3534720;27;20381;-71
2021/09/19 05:22:32;;;;;;;;;;;;;;;11.02;47.70;100307.69;3539327;27;19924;-71
2021/09/19 05:24:13;;;;;;;;;;;;;;;11.01;47.63;100312.22;3538793;27;19965;-73
2021/09/19 05:25:53;;;;;;;;;;;;;;;11.00;47.64;100312.41;3530291;27;19924;-70
2021/09/19 05:27:34;;;;;;;;;;;;;;;11.01;47.71;100316.72;3537429;27;19930;-71
2021/09/19 05:29:14;;;;;;;;;;;;;;;11.02;47.88;100307.69;3539191;27;19977;-72
2021/09/19 05:30:55;;;;;;;;;;;;;;;11.04;47.65;100311.84;3520867;28;19977;-71
2021/09/19 05:32:35;;;;;;;;;;;;;;;11.06;47.64;100314.34;3524870;27;19924;-71
2021/09/19 05:34:16;;;;;;;;;;;;;;;11.08;47.57;100312.31;3524895;28;19927;-71
2021/09/19 05:35:57;;;;;;;;;;;;;;;11.08;47.63;100313.16;3516007;28;19924;-72
2021/09/19 05:37:37;;;;;;;;;;;;;;;11.08;47.53;100307.00;3534630;27;20035;-72
2021/09/19 05:39:18;;;;;;;;;;;;;;;11.06;47.50;100315.16;3539149;27;19923;-70
2021/09/19 05:40:58;;;;;;;;;;;;;;;11.04;47.62;100311.00;3534479;27;19963;-71
2021/09/19 05:42:39;;;;;;;;;;;;;;;10.94;47.60;100305.94;3512722;28;20031;-70
2021/09/19 05:44:19;;;;;;;;;;;;;;;10.88;47.78;100312.84;3522123;28;20361;-71
2021/09/19 05:46:00;;;;;;;;;;;;;;;10.85;47.93;100312.38;3532503;27;19928;-70
2021/09/19 05:47:40;;;;;;;;;;;;;;;10.85;47.84;100318.53;3518883;28;20437;-70
2021/09/19 05:49:21;;;;;;;;;;;;;;;10.86;47.98;100314.84;3531839;27;20413;-70
2021/09/19 05:51:02;;;;;;;;;;;;;;;10.90;47.96;100318.81;3532564;27;19927;-70
2021/09/19 05:52:42;;;;;;;;;;;;;;;10.95;47.82;100312.94;3523454;28;20027;-70
2021/09/19 05:54:23;;;;;;;;;;;;;;;11.00;47.66;100305.22;3535818;27;19923;-70
2021/09/19 05:56:04;;;;;;;;;;;;;;;11.05;47.68;100312.69;3512801;28;19979;-70
2021/09/19 05:57:44;;;;;;;;;;;;;;;11.09;47.55;100324.63;3524122;27;19923;-71
2021/09/19 05:59:25;;;;;;;;;;;;;;;11.14;47.61;100311.59;3538916;27;20023;-70
2021/09/19 06:01:05;;;;;;;;;;;;;;;11.19;47.61;100314.53;3516293;28;20386;-70
2021/09/19 06:02:46;;;;;;;;;;;;;;;11.23;47.58;100315.84;3528760;27;19923;-69
2021/09/19 06:04:26;;;;;;;;;;;;;;;11.26;47.28;100309.31;3530760;27;19927;-69
2021/09/19 06:06:07;;;;;;;;;;;;;;;11.23;47.48;100315.84;3528209;27;20297;-69
2021/09/19 06:07:47;;;;;;;;;;;;;;;11.27;47.70;100303.75;3527885;27;20330;-70
2021/09/19 06:09:28;;;;;;;;;;;;;;;11.32;47.49;100306.72;3528757;27;20409;-69
2021/09/19 06:11:09;;;;;;;;;;;;;;;11.34;47.34;100314.53;3528750;27;19923;-71
2021/09/19 06:12:49;;;;;;;;;;;;;;;11.35;47.27;100319.69;3527210;27;19924;-71
2021/09/19 06:14:30;;;;;;;;;;;;;;;11.38;47.29;100310.47;3530421;27;20026;-70
2021/09/19 06:16:11;;;;;;;;;;;;;;;11.40;47.35;100315.63;3527102;27;20017;-70
2021/09/19 06:17:51;;;;;;;;;;;;;;;11.42;47.26;100316.28;3530967;27;19923;-69
2021/09/19 06:19:32;;;;;;;;;;;;;;;11.44;47.24;100316.94;3536664;27;19923;-70
2021/09/19 06:21:12;;;;;;;;;;;;;;;11.46;47.21;100321.09;3536334;27;19920;-70
2021/09/19 06:22:53;;;;;;;;;;;;;;;11.49;47.22;100315.38;3535616;27;19923;-70
2021/09/19 06:24:34;;;;;;;;;;;;;;;11.51;47.26;100308.00;3538664;27;20343;-70
2021/09/19 06:26:14;;;;;;;;;;;;;;;11.60;47.42;100315.91;3537094;27;19968;-70
2021/09/19 06:27:55;;;;;;;;;;;;;;;11.63;47.20;100311.03;3531730;27;19923;-70
2021/09/19 06:29:35;;;;;;;;;;;;;;;11.66;47.16;100309.81;3535183;27;19923;-70
2021/09/19 06:31:16;;;;;;;;;;;;;;;11.66;47.00;100310.63;3535470;27;19924;-70
2021/09/19 06:32:57;;;;;;;;;;;;;;;11.69;47.09;100302.25;3537822;27;19931;-70
2021/09/19 06:34:38;;;;;;;;;;;;;;;11.70;47.09;100311.94;3531871;27;20018;-69
2021/09/19 06:36:18;;;;;;;;;;;;;;;11.64;46.88;100302.00;3530943;28;19927;-70
2021/09/19 06:37:59;;;;;;;;;;;;;;;11.61;46.95;100306.88;3532168;28;19951;-70
2021/09/19 06:39:39;;;;;;;;;;;;;;;11.66;47.08;100312.50;3526361;28;19923;-70
2021/09/19 06:41:20;;;;;;;;;;;;;;;11.67;47.00;100298.97;3536282;28;19951;-72
2021/09/19 06:43:01;;;;;;;;;;;;;;;11.71;46.89;100304.75;3535381;28;19977;-70
2021/09/19 06:44:41;;;;;;;;;;;;;;;11.73;46.83;100303.53;3536564;28;19927;-70
2021/09/19 06:46:23;;;;;;;;;;;;;;;11.72;46.81;100299.22;3538376;28;20014;-70
2021/09/19 06:48:04;;;;;;;;;;;;;;;11.72;46.75;100303.72;3537185;28;19927;-69
2021/09/19 06:49:44;;;;;;;;;;;;;;;11.73;46.83;100305.41;3534825;28;19977;-69
2021/09/19 06:51:25;;;;;;;;;;;;;;;11.77;46.82;100299.50;3534506;28;19923;-70
2021/09/19 06:53:05;;;;;;;;;;;;;;;11.85;46.71;100297.72;3537986;28;19930;-70
2021/09/19 06:54:46;;;;;;;;;;;;;;;11.88;46.72;100300.06;3538601;28;19923;-69
2021/09/19 06:56:26;;;;;;;;;;;;;;;11.88;46.63;100295.53;3528745;28;19931;-70
2021/09/19 06:58:07;;;;;;;;;;;;;;;11.91;46.58;100297.00;3533384;28;19976;-70
2021/09/19 06:59:47;;;;;;;;;;;;;;;11.89;46.58;100291.84;3511122;28;20399;-71
2021/09/19 07:01:28;;;;;;;;;;;;;;;11.94;46.50;100296.63;3529673;28;19923;-70
2021/09/19 07:03:08;;;;;;;;;;;;;;;12.01;46.51;100292.19;3518439;28;19923;-71
2021/09/19 07:04:49;;;;;;;;;;;;;;;12.11;46.43;100295.38;3532597;28;19923;-69
2021/09/19 07:06:29;;;;;;;;;;;;;;;12.14;46.24;100286.97;3536732;28;19923;-70
2021/09/19 07:08:10;;;;;;;;;;;;;;;12.14;46.19;100292.34;3524053;28;19924;-69
2021/09/19 07:09:50;;;;;;;;;;;;;;;12.16;46.24;100295.66;3524256;28;19957;-70
2021/09/19 07:11:31;;;;;;;;;;;;;;;12.22;46.13;100299.41;3524003;28;20390;-69
2021/09/19 07:13:11;;;;;;;;;;;;;;;12.30;46.14;100291.25;3523026;28;19954;-71
2021/09/19 07:14:52;;;;;;;;;;;;;;;12.37;46.06;100292.16;3524489;28;19923;-70
2021/09/19 07:16:32;;;;;;;;;;;;;;;12.44;45.94;100289.50;3524298;28;19927;-70
2021/09/19 07:18:13;;;;;;;;;;;;;;;12.46;45.84;100292.00;3528113;28;19975;-70
2021/09/19 07:19:53;;;;;;;;;;;;;;;12.47;45.84;100286.47;3533541;28;19923;-70
2021/09/19 07:21:34;;;;;;;;;;;;;;;12.55;45.77;100289.00;3510700;28;19968;-70
2021/09/19 07:23:15;;;;;;;;;;;;;;;12.63;45.59;100290.72;3528770;28;19923;-70
2021/09/19 07:24:56;;;;;;;;;;;;;;;12.66;45.64;100293.84;3524562;28;20333;-70
2021/09/19 07:26:36;;;;;;;;;;;;;;;12.71;45.53;100287.09;3524173;28;20378;-71
2021/09/19 07:28:17;;;;;;;;;;;;;;;12.72;45.18;100281.53;3531510;28;20409;-70
2021/09/19 07:29:58;;;;;;;;;;;;;;;12.68;45.50;100284.81;3535527;28;19931;-69
2021/09/19 07:31:38;;;;;;;;;;;;;;;12.67;45.52;100297.31;3538013;28;20362;-69
2021/09/19 07:33:19;;;;;;;;;;;;;;;12.69;45.49;100289.13;3513673;28;20387;-70
2021/09/19 07:35:00;;;;;;;;;;;;;;;12.66;45.45;100291.16;3518823;28;19923;-69
2021/09/19 07:36:42;;;;;;;;;;;;;;;12.64;45.40;100287.84;3523978;28;19931;-70
2021/09/19 07:38:23;;;;;;;;;;;;;;;12.61;45.47;100290.91;3523472;28;20015;-69
2021/09/19 07:40:04;;;;;;;;;;;;;;;12.62;45.48;100286.38;3533980;28;19976;-70
2021/09/19 07:41:44;;;;;;;;;;;;;;;12.65;45.28;100294.88;3538318;27;19930;-70
2021/09/19 07:43:25;;;;;;;;;;;;;;;12.63;45.52;100278.19;3537323;27;19923;-71
2021/09/19 07:45:06;;;;;;;;;;;;;;;12.63;45.31;100278.19;3513179;28;19950;-70
2021/09/19 07:46:49;;;;;;;;;;;;;;;12.61;45.31;100268.69;3523538;28;19924;-69
2021/09/19 07:48:29;;;;;;;;;;;;;;;12.59;45.45;100274.22;3526011;27;19923;-70
2021/09/19 07:50:10;;;;;;;;;;;;;;;12.66;45.53;100275.13;3535567;27;19946;-70
2021/09/19 07:51:51;;;;;;;;;;;;;;;12.72;45.32;100268.16;3533076;27;19952;-70
2021/09/19 07:53:31;;;;;;;;;;;;;;;12.79;45.27;100273.56;3521899;28;19950;-70
2021/09/19 07:55:16;;;;;;;;;;;;;;;12.83;45.22;100269.47;3523786;28;19924;-70
2021/09/19 07:56:56;;;;;;;;;;;;;;;12.88;45.17;100273.22;3527830;27;20306;-70
2021/09/19 07:58:37;;;;;;;;;;;;;;;12.90;45.07;100270.34;3540395;27;20083;-70
2021/09/19 08:00:18;;;;;;;;;;;;;;;12.91;45.21;100264.00;3536650;27;19923;-70
2021/09/19 08:01:58;;;;;;;;;;;;;;;12.95;45.11;100257.22;3511781;28;19978;-70
2021/09/19 08:03:39;;;;;;;;;;;;;;;12.98;45.00;100264.84;3516348;28;19930;-70
2021/09/19 08:05:20;;;;;;;;;;;;;;;12.83;45.00;100232.88;3537434;27;19923;-71
2021/09/19 08:07:00;;;;;;;;;;;;;;;12.96;44.97;100248.19;3533055;27;19938;-70
2021/09/19 08:08:41;;;;;;;;;;;;;;;12.93;44.97;100242.38;3531471;27;19930;-69
2021/09/19 08:10:22;;;;;;;;;;;;;;;12.90;45.03;100246.25;3540478;27;20361;-70
2021/09/19 08:12:03;;;;;;;;;;;;;;;12.90;45.06;100246.25;3533153;27;20400;-70
2021/09/19 08:13:44;;;;;;;;;;;;;;;12.94;45.23;100244.88;3534350;27;19923;-69
2021/09/19 08:15:24;;;;;;;;;;;;;;;12.96;45.12;100258.03;3537823;27;19928;-70
2021/09/19 08:17:05;;;;;;;;;;;;;;;12.95;45.05;100246.50;3535427;27;20411;-71
2021/09/19 08:18:45;;;;;;;;;;;;;;;12.95;44.88;100254.53;3532342;27;19923;-71
2021/09/19 08:20:26;;;;;;;;;;;;;;;12.93;44.94;100253.91;3533181;27;19924;-70
2021/09/19 08:22:06;;;;;;;;;;;;;;;12.91;44.89;100247.94;3535778;27;19977;-69
2021/09/19 08:23:47;;;;;;;;;;;;;;;12.90;45.10;100248.13;3535408;27;20030;-70
2021/09/19 08:25:27;;;;;;;;;;;;;;;12.97;45.04;100259.69;3533119;27;19923;-70
2021/09/19 08:27:08;;;;;;;;;;;;;;;13.03;45.19;100251.69;3516407;28;19931;-69
2021/09/19 08:28:48;;;;;;;;;;;;;;;13.10;44.92;100260.59;3507944;28;19924;-69
2021/09/19 08:30:29;;;;;;;;;;;;;;;13.15;44.97;100245.81;3528556;27;20004;-69
2021/09/19 08:32:09;;;;;;;;;;;;;;;13.15;44.84;100256.50;3535097;27;20000;-70
2021/09/19 08:33:50;;;;;;;;;;;;;;;13.16;44.85;100258.97;3514266;28;19924;-70
2021/09/19 08:35:30;;;;;;;;;;;;;;;13.16;44.71;100258.16;3528208;27;19930;-70